Time;durP1;ratioP1;P1;durP2;ratioP2;P2;SDS_P1;SDS_P2;PMS_P1;PMS_P2;Temp;Humidity;BMP_temperature;BMP_pressure;BME280_temperature;BME280_humidity;BME280_pressure;Samples;Min_cycle;Max_cycle;Signal;HPM_P1;HPM_P2
2023/08/02 00:01:53;;;;;;;1.10;0.70;;;;;;;;;;5107253;27;42653;-64
2023/08/02 00:04:21;;;;;;;2.72;0.93;;;;;;;;;;5099108;27;41751;-64
2023/08/02 00:06:49;;;;;;;2.88;0.68;;;;;;;;;;5086981;28;41209;-64
2023/08/02 00:09:17;;;;;;;2.38;1.00;;;;;;;;;;5096178;28;41745;-64
2023/08/02 00:11:45;;;;;;;2.30;0.70;;;;;;;;;;5094835;27;42207;-64
2023/08/02 00:14:13;;;;;;;1.02;0.65;;;;;;;;;;5107438;27;41526;-64
2023/08/02 00:16:42;;;;;;;1.42;0.70;;;;;;;;;;5105775;27;42550;-64
2023/08/02 00:19:11;;;;;;;1.55;0.70;;;;;;;;;;5107746;27;41045;-64
2023/08/02 00:21:39;;;;;;;3.33;0.90;;;;;;;;;;5106711;27;43138;-64
2023/08/02 00:24:07;;;;;;;1.80;0.60;;;;;;;;;;5106647;27;41855;-64
2023/08/02 00:26:35;;;;;;;0.93;0.60;;;;;;;;;;5106413;27;41591;-64
2023/08/02 00:29:06;;;;;;;1.85;0.80;;;;;;;;;;5107623;28;41816;-64
2023/08/02 00:31:34;;;;;;;1.85;0.85;;;;;;;;;;5105598;28;41543;-64
2023/08/02 00:34:03;;;;;;;0.60;0.45;;;;;;;;;;5105893;28;41787;-64
2023/08/02 00:36:31;;;;;;;1.02;0.55;;;;;;;;;;5104195;28;40623;-64
2023/08/02 00:38:59;;;;;;;1.08;0.70;;;;;;;;;;5106646;28;42266;-64
2023/08/02 00:41:27;;;;;;;1.10;0.60;;;;;;;;;;5107313;28;41696;-64
2023/08/02 00:43:55;;;;;;;1.33;0.80;;;;;;;;;;5107490;28;42333;-64
2023/08/02 00:46:23;;;;;;;3.05;0.70;;;;;;;;;;5105575;27;42650;-64
2023/08/02 00:48:51;;;;;;;0.90;0.60;;;;;;;;;;5107290;28;43211;-64
2023/08/02 00:51:21;;;;;;;2.78;0.90;;;;;;;;;;5106126;27;41539;-64
2023/08/02 00:53:49;;;;;;;1.40;0.70;;;;;;;;;;5107084;28;41651;-64
2023/08/02 00:56:17;;;;;;;1.30;0.60;;;;;;;;;;5106763;28;43110;-64
2023/08/02 00:58:44;;;;;;;1.13;0.57;;;;;;;;;;5106175;28;41077;-64
2023/08/02 01:01:12;;;;;;;2.13;0.80;;;;;;;;;;5106671;27;42070;-64
2023/08/02 01:03:41;;;;;;;1.00;0.50;;;;;;;;;;5122428;27;41956;-64
2023/08/02 01:06:11;;;;;;;2.00;0.40;;;;;;;;;;5106637;28;41899;-64
2023/08/02 01:08:42;;;;;;;0.60;0.57;;;;;;;;;;5106542;28;41496;-64
2023/08/02 01:11:11;;;;;;;0.60;0.57;;;;;;;;;;5106373;27;40901;-64
2023/08/02 01:13:40;;;;;;;0.98;0.60;;;;;;;;;;5104295;28;40722;-64
2023/08/02 01:16:08;;;;;;;1.40;0.60;;;;;;;;;;5104989;28;40989;-64
2023/08/02 01:18:36;;;;;;;1.77;0.60;;;;;;;;;;5106672;28;41560;-64
2023/08/02 01:21:05;;;;;;;1.05;0.60;;;;;;;;;;5106031;27;42071;-64
2023/08/02 01:23:33;;;;;;;2.50;0.65;;;;;;;;;;5106679;28;43133;-64
2023/08/02 01:26:01;;;;;;;0.98;0.68;;;;;;;;;;5106794;28;41771;-64
2023/08/02 01:28:29;;;;;;;0.90;0.50;;;;;;;;;;5103423;28;42217;-64
2023/08/02 01:30:57;;;;;;;1.00;0.80;;;;;;;;;;5104866;28;40648;-64
2023/08/02 01:33:25;;;;;;;1.95;0.50;;;;;;;;;;5103706;28;40905;-64
2023/08/02 01:35:53;;;;;;;2.03;0.60;;;;;;;;;;5105005;28;41005;-64
2023/08/02 01:38:22;;;;;;;2.15;0.70;;;;;;;;;;5104011;28;40204;-63
2023/08/02 01:40:50;;;;;;;1.20;0.60;;;;;;;;;;5105442;27;40815;-64
2023/08/02 01:43:18;;;;;;;2.88;0.63;;;;;;;;;;5105882;27;43255;-64
2023/08/02 01:45:48;;;;;;;1.13;0.52;;;;;;;;;;5104884;28;39917;-64
2023/08/02 01:48:16;;;;;;;0.68;0.60;;;;;;;;;;5107773;28;42811;-64
2023/08/02 01:50:47;;;;;;;1.73;0.80;;;;;;;;;;5110007;28;42416;-64
2023/08/02 01:53:15;;;;;;;0.77;0.52;;;;;;;;;;5110342;28;42123;-64
2023/08/02 01:55:44;;;;;;;0.98;0.50;;;;;;;;;;5106809;28;42023;-64
2023/08/02 01:58:12;;;;;;;0.77;0.50;;;;;;;;;;5107832;28;41228;-64
2023/08/02 02:00:41;;;;;;;1.45;0.50;;;;;;;;;;5124181;27;42716;-64
2023/08/02 02:03:09;;;;;;;0.60;0.40;;;;;;;;;;5107840;28;40851;-64
2023/08/02 02:05:37;;;;;;;1.42;0.60;;;;;;;;;;5109103;27;41307;-64
2023/08/02 02:08:05;;;;;;;0.68;0.50;;;;;;;;;;5110158;28;41512;-64
2023/08/02 02:10:33;;;;;;;0.40;0.40;;;;;;;;;;5102190;28;41893;-64
2023/08/02 02:13:03;;;;;;;0.77;0.45;;;;;;;;;;5097265;28;41938;-63
2023/08/02 02:15:31;;;;;;;0.60;0.50;;;;;;;;;;5096806;28;41531;-64
2023/08/02 02:17:59;;;;;;;0.90;0.52;;;;;;;;;;5087795;28;40675;-64
2023/08/02 02:20:27;;;;;;;0.82;0.50;;;;;;;;;;5088935;28;41741;-64
2023/08/02 02:22:57;;;;;;;0.88;0.57;;;;;;;;;;5088422;28;41481;-64
2023/08/02 02:25:25;;;;;;;0.70;0.55;;;;;;;;;;5088779;28;41062;-64
2023/08/02 02:27:54;;;;;;;0.98;0.40;;;;;;;;;;5088665;28;42470;-64
2023/08/02 02:30:23;;;;;;;1.00;0.60;;;;;;;;;;5097920;28;43195;-64
2023/08/02 02:32:52;;;;;;;0.52;0.50;;;;;;;;;;5106784;28;42784;-64
2023/08/02 02:35:20;;;;;;;0.80;0.47;;;;;;;;;;5095350;28;42861;-64
2023/08/02 02:37:48;;;;;;;1.38;0.50;;;;;;;;;;5097647;28;41451;-64
2023/08/02 02:40:17;;;;;;;0.93;0.40;;;;;;;;;;5102706;28;41854;-63
2023/08/02 02:42:45;;;;;;;0.85;0.50;;;;;;;;;;5118730;27;42042;-64
2023/08/02 02:45:14;;;;;;;1.00;0.45;;;;;;;;;;5097497;27;41376;-64
2023/08/02 02:47:43;;;;;;;1.42;0.70;;;;;;;;;;5103591;27;42317;-64
2023/08/02 02:50:11;;;;;;;0.75;0.40;;;;;;;;;;5101961;28;43197;-64
2023/08/02 02:52:41;;;;;;;0.47;0.40;;;;;;;;;;5115774;27;39738;-64
2023/08/02 02:55:09;;;;;;;1.10;0.60;;;;;;;;;;5098819;28;41621;-64
2023/08/02 02:57:37;;;;;;;0.82;0.43;;;;;;;;;;5113856;27;40004;-63
2023/08/02 03:00:06;;;;;;;0.43;0.38;;;;;;;;;;5096152;27;41809;-64
2023/08/02 03:02:34;;;;;;;1.27;0.50;;;;;;;;;;5101253;27;42410;-64
2023/08/02 03:05:03;;;;;;;0.75;0.45;;;;;;;;;;5097136;28;41100;-63
2023/08/02 03:07:31;;;;;;;1.05;0.35;;;;;;;;;;5096775;27;42211;-63
2023/08/02 03:09:59;;;;;;;2.05;0.50;;;;;;;;;;5100780;27;43134;-64
2023/08/02 03:12:27;;;;;;;0.50;0.30;;;;;;;;;;5096993;27;42821;-64
2023/08/02 03:14:55;;;;;;;2.78;0.60;;;;;;;;;;5097843;27;42178;-64
2023/08/02 03:17:23;;;;;;;0.40;0.40;;;;;;;;;;5094163;27;41126;-64
2023/08/02 03:19:51;;;;;;;0.52;0.43;;;;;;;;;;5091685;28;41734;-64
2023/08/02 03:22:20;;;;;;;0.30;0.30;;;;;;;;;;5094833;27;43185;-64
2023/08/02 03:24:48;;;;;;;0.65;0.40;;;;;;;;;;5098451;28;41471;-63
2023/08/02 03:27:16;;;;;;;1.00;0.45;;;;;;;;;;5086956;28;41858;-64
2023/08/02 03:29:44;;;;;;;0.93;0.45;;;;;;;;;;5094103;28;42586;-64
2023/08/02 03:32:12;;;;;;;1.05;0.40;;;;;;;;;;5108206;27;42207;-63
2023/08/02 03:34:40;;;;;;;0.55;0.40;;;;;;;;;;5100094;28;42665;-64
2023/08/02 03:37:08;;;;;;;1.30;0.50;;;;;;;;;;5099614;27;41360;-63
2023/08/02 03:39:38;;;;;;;0.88;0.30;;;;;;;;;;5087106;28;42239;-63
2023/08/02 03:42:07;;;;;;;0.50;0.40;;;;;;;;;;5096620;28;20263;-63
2023/08/02 03:44:35;;;;;;;0.88;0.40;;;;;;;;;;5096873;27;41269;-63
2023/08/02 03:47:03;;;;;;;0.40;0.40;;;;;;;;;;5086339;28;42887;-63
2023/08/02 03:49:33;;;;;;;0.60;0.43;;;;;;;;;;5091895;28;41673;-63
2023/08/02 03:52:02;;;;;;;0.57;0.30;;;;;;;;;;5096422;28;41478;-64
2023/08/02 03:54:30;;;;;;;0.55;0.50;;;;;;;;;;5086047;28;42071;-64
2023/08/02 03:56:59;;;;;;;0.40;0.40;;;;;;;;;;5088206;28;42290;-64
2023/08/02 03:59:27;;;;;;;0.70;0.40;;;;;;;;;;5090455;28;42740;-64
2023/08/02 04:01:55;;;;;;;1.05;0.40;;;;;;;;;;5106522;27;43102;-64
2023/08/02 04:04:23;;;;;;;1.00;0.43;;;;;;;;;;5106410;27;41873;-64
2023/08/02 04:06:51;;;;;;;0.90;0.40;;;;;;;;;;5098882;27;41092;-64
2023/08/02 04:09:19;;;;;;;1.38;0.50;;;;;;;;;;5086313;28;43367;-64
2023/08/02 04:11:47;;;;;;;0.40;0.40;;;;;;;;;;5086734;28;41271;-64
2023/08/02 04:14:17;;;;;;;1.27;0.60;;;;;;;;;;5087234;28;41615;-64
2023/08/02 04:16:44;;;;;;;0.90;0.40;;;;;;;;;;5086174;28;42013;-64
2023/08/02 04:19:13;;;;;;;0.75;0.38;;;;;;;;;;5087766;28;41515;-64
2023/08/02 04:21:41;;;;;;;0.95;0.60;;;;;;;;;;5087005;28;42592;-64
2023/08/02 04:24:15;;;;;;;0.75;0.40;;;;;;;;;;5086792;28;41862;-64
2023/08/02 04:26:43;;;;;;;0.40;0.30;;;;;;;;;;5090543;28;42717;-64
2023/08/02 04:29:12;;;;;;;1.27;0.52;;;;;;;;;;5106356;27;42127;-64
2023/08/02 04:31:41;;;;;;;0.32;0.32;;;;;;;;;;5105975;27;41067;-63
2023/08/02 04:34:09;;;;;;;0.60;0.40;;;;;;;;;;5107452;27;41533;-64
2023/08/02 04:36:37;;;;;;;0.55;0.40;;;;;;;;;;5102633;27;41524;-63
2023/08/02 04:39:06;;;;;;;0.50;0.40;;;;;;;;;;5095925;28;40596;-64
2023/08/02 04:41:35;;;;;;;0.57;0.40;;;;;;;;;;5086260;28;42095;-64
2023/08/02 04:44:03;;;;;;;0.70;0.40;;;;;;;;;;5086308;28;42042;-64
2023/08/02 04:46:30;;;;;;;0.50;0.40;;;;;;;;;;5085799;28;41843;-64
2023/08/02 04:49:00;;;;;;;0.65;0.60;;;;;;;;;;5086634;28;43284;-64
2023/08/02 04:51:28;;;;;;;1.40;0.40;;;;;;;;;;5085190;28;41769;-64
2023/08/02 04:53:56;;;;;;;2.47;0.50;;;;;;;;;;5087272;28;42045;-64
2023/08/02 04:56:24;;;;;;;0.45;0.30;;;;;;;;;;5087089;28;42140;-64
2023/08/02 04:58:52;;;;;;;0.38;0.32;;;;;;;;;;5105808;27;41844;-64
2023/08/02 05:01:20;;;;;;;0.82;0.40;;;;;;;;;;5105453;27;42131;-64
2023/08/02 05:03:48;;;;;;;1.50;0.30;;;;;;;;;;5107018;27;42713;-63
2023/08/02 05:06:18;;;;;;;0.38;0.30;;;;;;;;;;5105468;27;42687;-64
2023/08/02 05:08:45;;;;;;;0.73;0.40;;;;;;;;;;5106584;27;42335;-64
2023/08/02 05:11:13;;;;;;;1.75;0.40;;;;;;;;;;5098704;27;41620;-64
2023/08/02 05:13:41;;;;;;;0.70;0.40;;;;;;;;;;5094063;27;42789;-64
2023/08/02 05:16:11;;;;;;;0.95;0.30;;;;;;;;;;5086301;28;43086;-63
2023/08/02 05:18:40;;;;;;;0.40;0.40;;;;;;;;;;5085716;28;40569;-64
2023/08/02 05:21:11;;;;;;;0.43;0.40;;;;;;;;;;5086287;28;41253;-64
2023/08/02 05:23:40;;;;;;;0.30;0.30;;;;;;;;;;5088286;28;43021;-64
2023/08/02 05:26:08;;;;;;;0.30;0.30;;;;;;;;;;5089172;28;42069;-64
2023/08/02 05:28:36;;;;;;;0.32;0.30;;;;;;;;;;5107835;28;41599;-64
2023/08/02 05:31:09;;;;;;;0.50;0.32;;;;;;;;;;5110108;27;40840;-64
2023/08/02 05:33:40;;;;;;;1.40;0.40;;;;;;;;;;5108095;27;42445;-64
2023/08/02 05:36:11;;;;;;;0.20;0.20;;;;;;;;;;5109980;27;42791;-64
2023/08/02 05:38:40;;;;;;;0.50;0.40;;;;;;;;;;5109595;27;41561;-64
2023/08/02 05:41:08;;;;;;;0.43;0.30;;;;;;;;;;5109582;27;42879;-64
2023/08/02 05:43:41;;;;;;;0.30;0.30;;;;;;;;;;5109756;27;42030;-64
2023/08/02 05:46:09;;;;;;;0.57;0.30;;;;;;;;;;5110499;27;42573;-64
2023/08/02 05:48:37;;;;;;;0.30;0.30;;;;;;;;;;5109135;27;41734;-64
2023/08/02 05:51:05;;;;;;;0.40;0.30;;;;;;;;;;5109720;27;41337;-64
2023/08/02 05:53:33;;;;;;;0.55;0.30;;;;;;;;;;5108479;27;41845;-64
2023/08/02 05:56:02;;;;;;;0.70;0.35;;;;;;;;;;5109488;27;42058;-64
2023/08/02 05:58:30;;;;;;;1.27;0.50;;;;;;;;;;5108773;27;42357;-64
2023/08/02 06:00:58;;;;;;;0.30;0.30;;;;;;;;;;5108934;27;42672;-64
2023/08/02 06:03:27;;;;;;;0.50;0.30;;;;;;;;;;5109339;27;42140;-64
2023/08/02 06:05:55;;;;;;;1.85;0.30;;;;;;;;;;5109105;27;42297;-64
2023/08/02 06:08:23;;;;;;;0.30;0.22;;;;;;;;;;5109305;27;41828;-64
2023/08/02 06:10:51;;;;;;;0.60;0.30;;;;;;;;;;5109689;27;41255;-64
2023/08/02 06:13:20;;;;;;;0.40;0.40;;;;;;;;;;5109135;27;41437;-64
2023/08/02 06:15:48;;;;;;;0.30;0.22;;;;;;;;;;5108204;27;41478;-64
2023/08/02 06:18:16;;;;;;;0.30;0.30;;;;;;;;;;5108933;27;41323;-64
2023/08/02 06:20:44;;;;;;;0.43;0.35;;;;;;;;;;5108991;27;41103;-64
2023/08/02 06:23:12;;;;;;;0.30;0.30;;;;;;;;;;5108600;28;43254;-64
2023/08/02 06:25:40;;;;;;;0.25;0.20;;;;;;;;;;5106806;28;41214;-64
2023/08/02 06:28:08;;;;;;;0.30;0.28;;;;;;;;;;5097427;28;41844;-64
2023/08/02 06:30:38;;;;;;;0.95;0.45;;;;;;;;;;5089973;28;41571;-63
2023/08/02 06:33:06;;;;;;;0.50;0.45;;;;;;;;;;5093240;28;43015;-64
2023/08/02 06:35:34;;;;;;;0.55;0.40;;;;;;;;;;5098425;28;43796;-64
2023/08/02 06:38:02;;;;;;;0.57;0.30;;;;;;;;;;5096963;27;40927;-63
2023/08/02 06:40:30;;;;;;;0.30;0.30;;;;;;;;;;5094283;28;42080;-64
2023/08/02 06:42:58;;;;;;;0.50;0.40;;;;;;;;;;5093800;28;42239;-64
2023/08/02 06:45:26;;;;;;;0.60;0.40;;;;;;;;;;5097129;28;41961;-64
2023/08/02 06:47:56;;;;;;;1.48;0.40;;;;;;;;;;5095291;28;41267;-64
2023/08/02 06:50:24;;;;;;;0.30;0.30;;;;;;;;;;5096733;28;43392;-64
2023/08/02 06:52:52;;;;;;;0.85;0.30;;;;;;;;;;5094700;27;41929;-64
2023/08/02 06:55:20;;;;;;;0.60;0.43;;;;;;;;;;5090717;28;41563;-64
2023/08/02 06:57:48;;;;;;;0.82;0.43;;;;;;;;;;5090406;28;41854;-64
2023/08/02 07:00:16;;;;;;;0.30;0.30;;;;;;;;;;5089557;28;41075;-64
2023/08/02 07:02:44;;;;;;;0.50;0.40;;;;;;;;;;5102427;27;42248;-63
2023/08/02 07:05:14;;;;;;;4.25;0.80;;;;;;;;;;5097006;27;42372;-71
2023/08/02 07:07:42;;;;;;;6.97;1.08;;;;;;;;;;5099791;28;41844;-68
2023/08/02 07:10:10;;;;;;;5.78;1.77;;;;;;;;;;5105549;28;41880;-68
2023/08/02 07:12:38;;;;;;;5.05;1.17;;;;;;;;;;5106764;27;41393;-65
2023/08/02 07:15:06;;;;;;;3.42;1.50;;;;;;;;;;5098305;27;42508;-70
2023/08/02 07:17:34;;;;;;;8.52;2.33;;;;;;;;;;5087403;28;39940;-68
2023/08/02 07:20:03;;;;;;;5.95;2.22;;;;;;;;;;5106183;28;42804;-69
2023/08/02 07:22:32;;;;;;;7.90;1.90;;;;;;;;;;5107637;27;41985;-65
2023/08/02 07:25:00;;;;;;;22.35;2.40;;;;;;;;;;5108207;27;41274;-65
2023/08/02 07:27:28;;;;;;;4.72;1.50;;;;;;;;;;5107310;27;42673;-69
2023/08/02 07:29:56;;;;;;;5.85;1.83;;;;;;;;;;5108485;27;41677;-69
2023/08/02 07:32:25;;;;;;;11.45;2.75;;;;;;;;;;5088975;27;41193;-69
2023/08/02 07:34:53;;;;;;;7.65;1.83;;;;;;;;;;5106817;28;41731;-68
2023/08/02 07:37:21;;;;;;;6.15;1.63;;;;;;;;;;5108197;27;34287;-64
2023/08/02 07:39:51;;;;;;;9.00;2.20;;;;;;;;;;5107545;27;41786;-64
2023/08/02 07:42:19;;;;;;;17.08;2.65;;;;;;;;;;5107928;27;42347;-70
2023/08/02 07:45:00;;;;;;;8.98;2.67;;;;;;;;;;5107413;27;42337;-66
2023/08/02 07:47:28;;;;;;;7.40;2.40;;;;;;;;;;5095139;27;41927;-67
2023/08/02 07:49:56;;;;;;;6.43;2.63;;;;;;;;;;5098762;28;42217;-66
2023/08/02 07:52:24;;;;;;;5.75;2.03;;;;;;;;;;5107890;27;41107;-65
2023/08/02 07:54:54;;;;;;;5.85;2.08;;;;;;;;;;5107150;27;41372;-67
2023/08/02 07:57:23;;;;;;;6.57;2.50;;;;;;;;;;5108078;27;42605;-67
2023/08/02 07:59:52;;;;;;;8.75;2.58;;;;;;;;;;5107563;27;42779;-66
2023/08/02 08:02:20;;;;;;;9.90;3.08;;;;;;;;;;5106791;27;41919;-67
2023/08/02 08:04:48;;;;;;;6.15;2.60;;;;;;;;;;5108278;27;42359;-66
2023/08/02 08:07:16;;;;;;;6.68;2.63;;;;;;;;;;5106196;27;41767;-63
2023/08/02 08:09:44;;;;;;;9.35;2.97;;;;;;;;;;5107272;27;42163;-66
2023/08/02 08:12:13;;;;;;;13.48;2.80;;;;;;;;;;5107766;27;41218;-65
2023/08/02 08:14:42;;;;;;;8.27;2.55;;;;;;;;;;5105882;27;41874;-66
2023/08/02 08:17:10;;;;;;;10.90;2.40;;;;;;;;;;5107173;27;42677;-63
2023/08/02 08:19:38;;;;;;;11.95;3.13;;;;;;;;;;5107131;27;41638;-63
2023/08/02 08:22:06;;;;;;;11.50;2.80;;;;;;;;;;5106514;27;41665;-63
2023/08/02 08:24:34;;;;;;;8.65;2.90;;;;;;;;;;5086732;28;41438;-63
2023/08/02 08:27:02;;;;;;;8.52;2.63;;;;;;;;;;5087501;28;42255;-63
2023/08/02 08:29:32;;;;;;;6.07;2.33;;;;;;;;;;5085628;28;42091;-63
2023/08/02 08:32:00;;;;;;;7.38;2.35;;;;;;;;;;5085611;28;41555;-63
2023/08/02 08:34:28;;;;;;;7.32;3.13;;;;;;;;;;5085651;28;41321;-64
2023/08/02 08:36:56;;;;;;;5.32;2.70;;;;;;;;;;5104511;27;42113;-63
2023/08/02 08:39:24;;;;;;;8.40;2.20;;;;;;;;;;5105009;27;42249;-63
2023/08/02 08:41:52;;;;;;;3.53;2.03;;;;;;;;;;5105449;27;43373;-63
2023/08/02 08:44:20;;;;;;;5.32;2.47;;;;;;;;;;5104098;27;41299;-63
2023/08/02 08:46:50;;;;;;;7.43;2.60;;;;;;;;;;5105969;27;41212;-63
2023/08/02 08:49:18;;;;;;;4.65;2.65;;;;;;;;;;5106285;27;42712;-63
2023/08/02 08:51:46;;;;;;;5.63;2.45;;;;;;;;;;5107557;27;41955;-63
2023/08/02 08:54:16;;;;;;;6.63;2.13;;;;;;;;;;5107069;27;41688;-63
2023/08/02 08:56:44;;;;;;;4.65;2.30;;;;;;;;;;5105716;27;42328;-63
2023/08/02 08:59:12;;;;;;;8.65;2.03;;;;;;;;;;5107120;27;42044;-63
2023/08/02 09:01:40;;;;;;;2.78;2.25;;;;;;;;;;5106670;27;41967;-63
2023/08/02 09:04:11;;;;;;;3.30;2.08;;;;;;;;;;5107080;27;41955;-63
2023/08/02 09:06:39;;;;;;;3.42;1.80;;;;;;;;;;5106097;27;42649;-63
2023/08/02 09:09:08;;;;;;;3.80;1.80;;;;;;;;;;5106803;27;42168;-63
2023/08/02 09:11:36;;;;;;;2.35;1.98;;;;;;;;;;5105619;27;41252;-63
2023/08/02 09:14:11;;;;;;;5.30;2.20;;;;;;;;;;5106818;27;41995;-63
2023/08/02 09:16:54;;;;;;;6.45;2.10;;;;;;;;;;5105925;27;42826;-62
2023/08/02 09:19:24;;;;;;;3.25;2.00;;;;;;;;;;5102541;27;41973;-63
2023/08/02 09:22:11;;;;;;;6.05;2.47;;;;;;;;;;5086779;28;42408;-63
2023/08/02 09:24:39;;;;;;;2.17;1.73;;;;;;;;;;5098054;28;41594;-63
2023/08/02 09:27:12;;;;;;;2.83;1.90;;;;;;;;;;5106979;27;41476;-63
2023/08/02 09:29:44;;;;;;;2.65;1.67;;;;;;;;;;5105928;27;42331;-63
2023/08/02 09:32:12;;;;;;;2.10;1.67;;;;;;;;;;5105345;27;41659;-63
2023/08/02 09:34:45;;;;;;;2.00;1.70;;;;;;;;;;5105893;27;41939;-62
2023/08/02 09:37:13;;;;;;;3.72;2.00;;;;;;;;;;5090774;27;42030;-63
2023/08/02 09:39:48;;;;;;;3.85;1.80;;;;;;;;;;5085333;28;40916;-63
2023/08/02 09:42:17;;;;;;;2.67;1.70;;;;;;;;;;5086308;28;42643;-63
2023/08/02 09:44:52;;;;;;;1.92;1.70;;;;;;;;;;5086136;28;42905;-62
2023/08/02 09:47:20;;;;;;;3.28;1.60;;;;;;;;;;5085644;28;41415;-63
2023/08/02 09:50:09;;;;;;;3.97;1.52;;;;;;;;;;5086351;28;43076;-63
2023/08/02 09:52:39;;;;;;;3.20;1.60;;;;;;;;;;5084707;28;41518;-63
2023/08/02 09:55:07;;;;;;;2.22;1.50;;;;;;;;;;5086396;28;42888;-63
2023/08/02 09:57:36;;;;;;;1.40;1.30;;;;;;;;;;5085364;28;42227;-62
2023/08/02 10:00:05;;;;;;;2.00;1.45;;;;;;;;;;5085319;28;41597;-63
2023/08/02 10:02:42;;;;;;;1.63;1.42;;;;;;;;;;5085979;28;42517;-63
2023/08/02 10:05:12;;;;;;;1.55;1.35;;;;;;;;;;5086023;28;42293;-63
2023/08/02 10:07:43;;;;;;;1.20;1.00;;;;;;;;;;5089130;27;41658;-63
2023/08/02 10:10:13;;;;;;;1.90;1.10;;;;;;;;;;5109348;27;42691;-63
2023/08/02 10:12:41;;;;;;;1.40;1.23;;;;;;;;;;5108855;27;42426;-63
2023/08/02 10:15:09;;;;;;;1.30;1.20;;;;;;;;;;5108672;27;42320;-63
2023/08/02 10:17:37;;;;;;;1.77;1.25;;;;;;;;;;5108846;27;42680;-62
2023/08/02 10:20:06;;;;;;;1.08;0.98;;;;;;;;;;5109460;27;41284;-63
2023/08/02 10:22:36;;;;;;;1.75;1.10;;;;;;;;;;5107730;27;41808;-63
2023/08/02 10:25:05;;;;;;;1.45;1.20;;;;;;;;;;5109380;27;42756;-63
2023/08/02 10:27:33;;;;;;;2.15;1.15;;;;;;;;;;5108888;27;41255;-63
2023/08/02 10:30:02;;;;;;;3.10;1.17;;;;;;;;;;5108122;27;42628;-71
2023/08/02 10:32:30;;;;;;;2.75;1.20;;;;;;;;;;5098434;27;42104;-75
2023/08/02 10:34:59;;;;;;;1.95;0.90;;;;;;;;;;5096482;27;42361;-69
2023/08/02 10:37:42;;;;;;;4.30;1.00;;;;;;;;;;5097876;28;43189;-63
2023/08/02 10:40:12;;;;;;;2.42;1.13;;;;;;;;;;5097258;27;41457;-76
2023/08/02 10:43:01;;;;;;;0.98;0.88;;;;;;;;;;5092999;27;42133;-82
2023/08/02 10:45:29;;;;;;;3.00;1.33;;;;;;;;;;5105921;27;42721;-80
2023/08/02 10:48:12;;;;;;;9.73;1.05;;;;;;;;;;5105204;27;42975;-71
2023/08/02 10:50:44;;;;;;;3.17;1.00;;;;;;;;;;5103378;28;42510;-72
2023/08/02 10:53:13;;;;;;;4.88;1.30;;;;;;;;;;5100114;27;42091;-70
2023/08/02 10:55:55;;;;;;;2.97;1.17;;;;;;;;;;5095912;27;41201;-66
2023/08/02 10:58:25;;;;;;;1.83;1.25;;;;;;;;;;5106782;28;42134;-66
2023/08/02 11:00:56;;;;;;;4.38;1.00;;;;;;;;;;5108773;27;42389;-75
2023/08/02 11:03:28;;;;;;;2.78;1.10;;;;;;;;;;5107424;27;41282;-72
2023/08/02 11:05:56;;;;;;;2.20;1.30;;;;;;;;;;5108504;27;42210;-70
2023/08/02 11:08:24;;;;;;;1.67;1.00;;;;;;;;;;5108024;27;41698;-69
2023/08/02 11:10:53;;;;;;;4.28;1.27;;;;;;;;;;5107015;27;41680;-68
2023/08/02 11:13:21;;;;;;;4.75;1.40;;;;;;;;;;5090622;27;41782;-67
2023/08/02 11:16:02;;;;;;;1.88;0.98;;;;;;;;;;5094677;28;41458;-65
2023/08/02 11:18:30;;;;;;;2.50;0.90;;;;;;;;;;5104705;28;41856;-64
2023/08/02 11:21:08;;;;;;;3.95;1.27;;;;;;;;;;5103059;27;41343;-63
2023/08/02 11:23:36;;;;;;;8.13;1.58;;;;;;;;;;5106659;27;42312;-63
2023/08/02 11:26:08;;;;;;;2.75;1.30;;;;;;;;;;5106584;27;41693;-63
2023/08/02 11:28:40;;;;;;;3.33;1.20;;;;;;;;;;5106071;27;42306;-63
2023/08/02 11:31:09;;;;;;;3.30;1.15;;;;;;;;;;5106406;27;41758;-63
2023/08/02 11:33:37;;;;;;;1.90;1.20;;;;;;;;;;5106371;27;42241;-64
2023/08/02 11:36:05;;;;;;;1.58;1.10;;;;;;;;;;5107397;27;42447;-64
2023/08/02 11:38:34;;;;;;;2.78;1.40;;;;;;;;;;5106684;27;41751;-63
2023/08/02 11:41:02;;;;;;;2.97;1.35;;;;;;;;;;5107545;27;42530;-63
2023/08/02 11:43:36;;;;;;;4.15;1.02;;;;;;;;;;5106956;27;42273;-63
2023/08/02 11:46:13;;;;;;;3.40;1.02;;;;;;;;;;5106316;27;41900;-63
2023/08/02 11:48:42;;;;;;;1.40;1.30;;;;;;;;;;5107732;27;41473;-62
2023/08/02 11:51:11;;;;;;;6.25;1.60;;;;;;;;;;5107338;27;42275;-67
2023/08/02 11:53:51;;;;;;;2.97;1.05;;;;;;;;;;5105778;27;41618;-67
2023/08/02 11:56:20;;;;;;;2.17;1.25;;;;;;;;;;5106792;27;40852;-69
2023/08/02 11:58:48;;;;;;;1.70;1.10;;;;;;;;;;5107102;27;42693;-65
2023/08/02 12:01:17;;;;;;;3.15;1.33;;;;;;;;;;5105753;27;42186;-63
2023/08/02 12:03:55;;;;;;;1.40;1.20;;;;;;;;;;5106855;27;41769;-65
2023/08/02 12:06:23;;;;;;;1.60;1.10;;;;;;;;;;5095466;28;41870;-66
2023/08/02 12:08:52;;;;;;;3.53;1.05;;;;;;;;;;5106251;27;41107;-68
2023/08/02 12:11:21;;;;;;;3.63;1.10;;;;;;;;;;5105638;27;42765;-66
2023/08/02 12:13:49;;;;;;;2.85;1.23;;;;;;;;;;5105584;27;43014;-67
2023/08/02 12:16:18;;;;;;;3.08;1.20;;;;;;;;;;5093757;27;41765;-66
2023/08/02 12:18:50;;;;;;;7.88;1.45;;;;;;;;;;5086333;28;42290;-66
2023/08/02 12:21:18;;;;;;;3.47;1.17;;;;;;;;;;5104799;28;42390;-66
2023/08/02 12:23:46;;;;;;;4.20;1.40;;;;;;;;;;5107207;27;41952;-65
2023/08/02 12:26:27;;;;;;;3.17;1.23;;;;;;;;;;5106902;27;42277;-66
2023/08/02 12:28:55;;;;;;;5.63;1.20;;;;;;;;;;5106712;27;41279;-67
2023/08/02 12:31:24;;;;;;;4.50;1.88;;;;;;;;;;5105934;27;41740;-66
2023/08/02 12:33:53;;;;;;;1.92;1.30;;;;;;;;;;5101874;28;43445;-66
2023/08/02 12:36:24;;;;;;;3.10;1.35;;;;;;;;;;5105309;27;41719;-67
2023/08/02 12:38:52;;;;;;;1.52;1.10;;;;;;;;;;5106891;27;43562;-64
2023/08/02 12:41:20;;;;;;;5.38;1.40;;;;;;;;;;5106090;27;42109;-67
2023/08/02 12:43:49;;;;;;;2.15;1.00;;;;;;;;;;5106335;27;40942;-67
2023/08/02 12:46:17;;;;;;;1.27;0.98;;;;;;;;;;5106429;27;41237;-67
2023/08/02 12:48:47;;;;;;;1.10;1.00;;;;;;;;;;5106088;27;41004;-68
2023/08/02 12:51:15;;;;;;;1.05;0.88;;;;;;;;;;5097510;28;42547;-68
2023/08/02 12:53:43;;;;;;;0.98;0.95;;;;;;;;;;5106854;27;42048;-66
2023/08/02 12:56:12;;;;;;;1.98;0.98;;;;;;;;;;5105557;27;41314;-67
2023/08/02 12:58:40;;;;;;;1.55;0.90;;;;;;;;;;5106336;27;41703;-67
2023/08/02 13:01:08;;;;;;;1.75;1.13;;;;;;;;;;5106804;27;42286;-67
2023/08/02 13:03:36;;;;;;;2.25;1.23;;;;;;;;;;5105071;27;41897;-67
2023/08/02 13:06:05;;;;;;;2.88;0.90;;;;;;;;;;5106024;27;42593;-66
2023/08/02 13:08:34;;;;;;;1.00;0.90;;;;;;;;;;5106206;27;42138;-67
2023/08/02 13:11:02;;;;;;;1.90;1.10;;;;;;;;;;5105470;27;42699;-67
2023/08/02 13:13:30;;;;;;;1.13;1.00;;;;;;;;;;5102489;27;41704;-67
2023/08/02 13:15:58;;;;;;;1.95;0.98;;;;;;;;;;5089451;28;42041;-67
2023/08/02 13:18:26;;;;;;;1.15;1.05;;;;;;;;;;5084357;28;41792;-67
2023/08/02 13:20:57;;;;;;;1.23;0.80;;;;;;;;;;5085950;28;41831;-68
2023/08/02 13:23:27;;;;;;;0.70;0.70;;;;;;;;;;5085575;28;40863;-67
2023/08/02 13:25:55;;;;;;;2.22;0.70;;;;;;;;;;5085177;28;41751;-69
2023/08/02 13:28:23;;;;;;;1.42;0.70;;;;;;;;;;5085520;28;42265;-66
2023/08/02 13:30:52;;;;;;;1.17;0.90;;;;;;;;;;5085540;28;41236;-66
2023/08/02 13:33:20;;;;;;;1.05;0.80;;;;;;;;;;5084774;28;42910;-67
2023/08/02 13:35:48;;;;;;;1.15;0.98;;;;;;;;;;5085321;28;41301;-67
2023/08/02 13:38:17;;;;;;;1.35;0.90;;;;;;;;;;5084130;28;41705;-67
2023/08/02 13:40:46;;;;;;;2.00;0.75;;;;;;;;;;5085863;28;42874;-67
2023/08/02 13:43:14;;;;;;;3.15;0.70;;;;;;;;;;5085912;28;41354;-66
2023/08/02 13:45:43;;;;;;;2.97;0.70;;;;;;;;;;5087945;28;42345;-66
2023/08/02 13:48:11;;;;;;;4.57;1.00;;;;;;;;;;5088656;28;42862;-65
2023/08/02 13:50:39;;;;;;;8.43;0.80;;;;;;;;;;5088702;28;41568;-66
2023/08/02 13:53:07;;;;;;;3.50;1.10;;;;;;;;;;5100226;28;42286;-66
2023/08/02 13:55:36;;;;;;;1.50;0.80;;;;;;;;;;5108718;27;40807;-70
2023/08/02 13:58:05;;;;;;;5.00;1.00;;;;;;;;;;5108661;27;42314;-68
2023/08/02 14:00:33;;;;;;;1.00;0.90;;;;;;;;;;5107608;27;43111;-70
2023/08/02 14:03:01;;;;;;;2.55;0.95;;;;;;;;;;5109246;27;41824;-70
2023/08/02 14:05:30;;;;;;;4.22;1.10;;;;;;;;;;5108556;27;42337;-69
2023/08/02 14:07:58;;;;;;;6.18;1.40;;;;;;;;;;5107883;27;42710;-67
2023/08/02 14:10:26;;;;;;;2.90;1.35;;;;;;;;;;5108384;27;41404;-68
2023/08/02 14:12:54;;;;;;;2.63;1.20;;;;;;;;;;5108632;27;41602;-68
2023/08/02 14:15:24;;;;;;;3.85;1.10;;;;;;;;;;5108849;27;41051;-69
2023/08/02 14:17:52;;;;;;;2.47;1.23;;;;;;;;;;5108329;27;42692;-66
2023/08/02 14:20:20;;;;;;;3.53;0.95;;;;;;;;;;5104395;27;41575;-68
2023/08/02 14:22:48;;;;;;;3.15;1.08;;;;;;;;;;5109501;27;41245;-67
2023/08/02 14:25:16;;;;;;;8.88;1.55;;;;;;;;;;5109340;27;42705;-67
2023/08/02 14:27:44;;;;;;;2.00;1.00;;;;;;;;;;5107365;28;41953;-67
2023/08/02 14:30:13;;;;;;;3.55;1.40;;;;;;;;;;5109222;27;41179;-67
2023/08/02 14:32:42;;;;;;;3.80;1.20;;;;;;;;;;5107816;27;42976;-67
2023/08/02 14:35:10;;;;;;;2.30;0.88;;;;;;;;;;5108105;27;42280;-66
2023/08/02 14:37:41;;;;;;;3.03;1.17;;;;;;;;;;5107520;27;41589;-66
2023/08/02 14:40:09;;;;;;;3.63;1.50;;;;;;;;;;5109001;27;42798;-67
2023/08/02 14:42:37;;;;;;;3.33;1.10;;;;;;;;;;5106954;27;41295;-67
2023/08/02 14:45:06;;;;;;;4.60;1.42;;;;;;;;;;5108764;27;41589;-67
2023/08/02 14:47:35;;;;;;;3.65;1.25;;;;;;;;;;5107505;27;41952;-69
2023/08/02 14:50:06;;;;;;;3.47;1.35;;;;;;;;;;5108185;27;40851;-66
2023/08/02 14:52:34;;;;;;;4.63;1.17;;;;;;;;;;5108023;27;41198;-66
2023/08/02 14:55:02;;;;;;;4.80;1.70;;;;;;;;;;5107656;27;41781;-67